createdAt,value
2023-03-28T00:01:08.306Z,12.11
2023-03-28T00:03:42.623Z,12.10
2023-03-28T00:06:18.963Z,12.11
2023-03-28T00:08:48.129Z,12.10
2023-03-28T00:11:21.254Z,12.08
2023-03-28T00:14:01.134Z,12.06
2023-03-28T00:16:39.486Z,12.03
2023-03-28T00:19:09.862Z,12.00
2023-03-28T00:21:40.353Z,11.98
2023-03-28T00:24:13.949Z,11.97
2023-03-28T00:26:42.861Z,11.94
2023-03-28T00:29:15.853Z,11.93
2023-03-28T00:31:44.761Z,11.89
2023-03-28T00:34:13.036Z,11.89
2023-03-28T00:36:41.854Z,11.88
2023-03-28T00:39:11.114Z,11.85
2023-03-28T00:41:43.893Z,11.83
2023-03-28T00:44:37.246Z,11.81
2023-03-28T00:47:06.531Z,11.79
2023-03-28T00:49:34.906Z,11.78
2023-03-28T00:52:03.644Z,11.78
2023-03-28T00:54:34.059Z,11.78
2023-03-28T00:57:02.759Z,11.77
2023-03-28T00:59:33.815Z,11.74
2023-03-28T01:02:03.640Z,11.73
2023-03-28T01:04:38.706Z,11.70
2023-03-28T01:07:07.897Z,11.69
2023-03-28T01:09:38.062Z,11.67
2023-03-28T01:12:06.428Z,11.66
2023-03-28T01:14:37.044Z,11.63
2023-03-28T01:17:05.749Z,11.60
2023-03-28T01:19:42.925Z,11.57
2023-03-28T01:22:34.000Z,11.52
2023-03-28T01:25:46.142Z,11.50
2023-03-28T01:28:52.508Z,11.51
2023-03-28T01:32:06.286Z,11.57
2023-03-28T01:35:36.818Z,11.62
2023-03-28T01:38:19.825Z,11.59
2023-03-28T01:41:04.300Z,11.55
2023-03-28T01:43:47.396Z,11.55
2023-03-28T01:46:17.021Z,11.59
2023-03-28T01:49:04.226Z,11.58
2023-03-28T01:51:48.356Z,11.54
2023-03-28T01:54:32.564Z,11.50
2023-03-28T01:57:03.329Z,11.42
2023-03-28T01:59:49.787Z,11.36
2023-03-28T02:02:35.154Z,11.31
2023-03-28T02:05:15.619Z,11.29
2023-03-28T02:07:45.457Z,11.28
2023-03-28T02:10:17.116Z,11.28
2023-03-28T02:13:20.877Z,11.27
2023-03-28T02:15:56.340Z,11.25
2023-03-28T02:18:50.603Z,11.20
2023-03-28T02:21:45.687Z,11.16
2023-03-28T02:24:42.693Z,11.14
2023-03-28T02:27:29.983Z,11.11
2023-03-28T02:30:14.391Z,11.09
2023-03-28T02:32:51.757Z,11.08
2023-03-28T02:35:23.722Z,11.06
2023-03-28T02:38:16.130Z,11.05
2023-03-28T02:41:07.377Z,11.03
2023-03-28T02:43:45.039Z,10.95
2023-03-28T02:46:21.840Z,10.83
2023-03-28T02:49:01.672Z,10.74
2023-03-28T02:51:41.801Z,10.72
2023-03-28T02:54:33.904Z,10.72
2023-03-28T02:57:43.623Z,10.74
2023-03-28T03:00:16.750Z,10.78
2023-03-28T03:02:49.356Z,10.83
2023-03-28T03:05:20.626Z,10.91
2023-03-28T03:07:49.997Z,10.94
2023-03-28T03:10:18.848Z,10.91
2023-03-28T03:12:49.589Z,10.89
2023-03-28T03:15:18.043Z,10.90
2023-03-28T03:18:00.594Z,10.89
2023-03-28T03:20:34.054Z,10.90
2023-03-28T03:23:06.466Z,10.92
2023-03-28T03:25:36.039Z,10.92
2023-03-28T03:28:18.898Z,10.92
2023-03-28T03:30:48.699Z,10.93
2023-03-28T03:33:29.256Z,10.96
2023-03-28T03:36:12.848Z,10.93
2023-03-28T03:38:44.946Z,10.84
2023-03-28T03:41:17.380Z,10.72
2023-03-28T03:43:47.442Z,10.66
2023-03-28T03:46:15.932Z,10.59
2023-03-28T03:48:49.480Z,10.53
2023-03-28T03:51:19.069Z,10.49
2023-03-28T03:53:50.841Z,10.42
2023-03-28T03:56:21.397Z,10.39
2023-03-28T03:58:59.586Z,10.38
2023-03-28T04:01:35.244Z,10.33
2023-03-28T04:04:14.690Z,10.27
2023-03-28T04:06:59.738Z,10.23
2023-03-28T04:09:32.408Z,10.21
2023-03-28T04:12:06.091Z,10.19
2023-03-28T04:14:43.364Z,10.21
2023-03-28T04:17:35.233Z,10.22
2023-03-28T04:20:15.129Z,10.21
2023-03-28T04:23:20.494Z,10.23
2023-03-28T04:25:49.833Z,10.20
2023-03-28T04:28:45.760Z,10.17
2023-03-28T04:31:14.048Z,10.21
2023-03-28T04:34:30.099Z,10.31
2023-03-28T04:37:18.516Z,10.36
2023-03-28T04:39:54.386Z,10.40
2023-03-28T04:42:48.062Z,10.46
2023-03-28T04:45:21.645Z,10.46
2023-03-28T04:47:50.806Z,10.39
2023-03-28T04:50:21.272Z,10.38
2023-03-28T04:52:52.970Z,10.35
2023-03-28T04:55:21.434Z,10.30
2023-03-28T04:57:50.479Z,10.30
2023-03-28T05:00:20.444Z,10.30
2023-03-28T05:03:04.718Z,10.30
2023-03-28T05:05:36.622Z,10.33
2023-03-28T05:08:05.306Z,10.38
2023-03-28T05:10:33.527Z,10.45
2023-03-28T05:13:05.790Z,10.52
2023-03-28T05:15:40.106Z,10.55
2023-03-28T05:18:49.222Z,10.55
2023-03-28T05:21:19.007Z,10.57
2023-03-28T05:23:52.503Z,10.54
2023-03-28T05:26:23.382Z,10.50
2023-03-28T05:28:52.713Z,10.45
2023-03-28T05:31:26.065Z,10.44
2023-03-28T05:34:05.077Z,10.41
2023-03-28T05:36:39.971Z,10.38
2023-03-28T05:39:19.272Z,10.31
2023-03-28T05:41:47.435Z,10.26
2023-03-28T05:44:20.373Z,10.25
2023-03-28T05:47:07.273Z,10.26
2023-03-28T05:49:44.802Z,10.22
2023-03-28T05:52:12.896Z,10.17
2023-03-28T05:54:41.484Z,10.11
2023-03-28T05:57:19.944Z,10.12
2023-03-28T05:59:48.617Z,10.10
2023-03-28T06:02:20.826Z,10.09
2023-03-28T06:04:49.993Z,10.10
2023-03-28T06:07:25.461Z,10.05
2023-03-28T06:10:01.854Z,10.04
2023-03-28T06:12:35.575Z,10.02
2023-03-28T06:15:04.020Z,10.01
2023-03-28T06:17:41.523Z,9.96
2023-03-28T06:20:16.012Z,9.92
2023-03-28T06:22:44.236Z,9.94
2023-03-28T06:25:12.657Z,10.01
2023-03-28T06:27:42.340Z,10.03
2023-03-28T06:30:13.862Z,10.08
2023-03-28T06:32:48.689Z,10.16
2023-03-28T06:35:17.136Z,10.21
2023-03-28T06:37:46.635Z,10.20
2023-03-28T06:40:18.884Z,10.26
2023-03-28T06:42:48.344Z,10.31
2023-03-28T06:45:36.768Z,10.28
2023-03-28T06:48:09.722Z,10.19
2023-03-28T06:51:13.229Z,10.22
2023-03-28T06:53:43.135Z,10.33
2023-03-28T06:56:12.024Z,10.44
2023-03-28T06:58:41.085Z,10.58
2023-03-28T07:01:12.404Z,10.75
2023-03-28T07:03:52.405Z,10.88
2023-03-28T07:06:22.817Z,10.97
2023-03-28T07:08:51.503Z,11.01
2023-03-28T07:11:29.565Z,11.07
2023-03-28T07:13:59.008Z,11.20
2023-03-28T07:16:27.544Z,11.32
2023-03-28T07:18:58.398Z,11.39
2023-03-28T07:21:33.884Z,11.39
2023-03-28T07:24:04.301Z,11.35
2023-03-28T07:27:15.580Z,11.35
2023-03-28T07:29:46.294Z,11.39
2023-03-28T07:32:16.891Z,11.38
2023-03-28T07:34:46.608Z,11.31
2023-03-28T07:37:19.844Z,11.20
2023-03-28T07:40:10.983Z,11.15
2023-03-28T07:42:42.363Z,11.16
2023-03-28T07:45:13.938Z,11.15
2023-03-28T07:47:43.692Z,11.14
2023-03-28T07:50:12.287Z,11.14
2023-03-28T07:52:45.872Z,11.12
2023-03-28T07:55:15.090Z,11.12
2023-03-28T07:57:51.833Z,11.14
2023-03-28T08:00:27.665Z,11.16
2023-03-28T08:03:14.776Z,11.18
2023-03-28T08:05:52.070Z,11.22
2023-03-28T08:08:22.114Z,11.31
2023-03-28T08:11:02.331Z,11.39
2023-03-28T08:13:31.715Z,11.41
2023-03-28T08:16:08.575Z,11.41
2023-03-28T08:18:36.750Z,11.42
2023-03-28T08:21:08.948Z,11.41
2023-03-28T08:23:42.061Z,11.39
2023-03-28T08:26:48.652Z,11.38
2023-03-28T08:29:17.621Z,11.35
2023-03-28T08:31:46.107Z,11.36
2023-03-28T08:34:14.690Z,11.39
2023-03-28T08:36:43.469Z,11.38
2023-03-28T08:39:23.469Z,11.35
2023-03-28T08:42:06.304Z,11.35
2023-03-28T08:44:46.150Z,11.30
2023-03-28T08:47:32.356Z,11.23
2023-03-28T08:50:22.879Z,11.14
2023-03-28T08:52:54.586Z,11.06
2023-03-28T08:55:43.437Z,10.98
2023-03-28T08:58:19.873Z,10.89
2023-03-28T09:00:48.984Z,10.85
2023-03-28T09:03:22.465Z,10.81
2023-03-28T09:06:12.985Z,10.71
2023-03-28T09:08:56.939Z,10.64
2023-03-28T09:11:41.938Z,10.65
2023-03-28T09:14:36.077Z,10.70
2023-03-28T09:17:31.840Z,10.68
2023-03-28T09:20:43.313Z,10.66
2023-03-28T09:23:52.747Z,10.66
2023-03-28T09:26:24.763Z,10.63
2023-03-28T09:29:03.675Z,10.65
2023-03-28T09:31:36.134Z,10.64
2023-03-28T09:34:05.083Z,10.58
2023-03-28T09:36:49.640Z,10.52
2023-03-28T09:39:33.608Z,10.47
2023-03-28T09:42:09.454Z,10.42
2023-03-28T09:45:00.731Z,10.39
2023-03-28T09:48:04.196Z,10.33
2023-03-28T09:53:33.017Z,10.18
2023-03-28T09:56:08.315Z,10.12
2023-03-28T09:58:54.479Z,10.06
2023-03-28T10:01:50.975Z,9.94
2023-03-28T10:04:39.572Z,9.90
2023-03-28T10:07:35.027Z,9.81
2023-03-28T10:10:22.574Z,9.75
2023-03-28T10:12:59.434Z,9.70
2023-03-28T10:15:45.741Z,9.67
2023-03-28T10:18:33.077Z,9.68
2023-03-28T10:21:24.741Z,9.69
2023-03-28T10:24:04.978Z,9.69
2023-03-28T10:26:33.841Z,9.69
2023-03-28T10:29:05.480Z,9.71
2023-03-28T10:31:34.192Z,9.71
2023-03-28T10:34:28.975Z,9.69
2023-03-28T10:37:32.390Z,9.68
2023-03-28T10:40:32.491Z,9.69
2023-03-28T10:43:43.578Z,9.73
2023-03-28T10:46:43.068Z,9.76
2023-03-28T10:49:21.323Z,9.79
2023-03-28T10:52:16.172Z,9.78
2023-03-28T10:55:07.146Z,9.79
2023-03-28T10:57:57.733Z,9.87
2023-03-28T11:00:31.116Z,9.91
2023-03-28T11:03:10.176Z,9.89
2023-03-28T11:06:08.644Z,9.84
2023-03-28T11:09:15.093Z,9.79
2023-03-28T11:12:27.943Z,9.74
2023-03-28T11:15:11.147Z,9.70
2023-03-28T11:18:16.671Z,9.67
2023-03-28T11:20:52.222Z,9.60
2023-03-28T11:23:46.273Z,9.53
2023-03-28T11:26:31.842Z,9.48
2023-03-28T11:29:43.761Z,9.47
2023-03-28T11:32:39.205Z,9.53
2023-03-28T11:35:27.533Z,9.55
2023-03-28T11:38:13.402Z,9.56
2023-03-28T11:40:57.683Z,9.62
2023-03-28T11:43:53.847Z,9.63
2023-03-28T11:46:38.283Z,9.70
2023-03-28T11:49:38.608Z,9.74
2023-03-28T11:52:17.859Z,9.75
2023-03-28T11:54:59.123Z,9.78
2023-03-28T11:57:49.153Z,9.80
2023-03-28T12:00:33.593Z,9.89
2023-03-28T12:03:17.156Z,9.99
2023-03-28T12:06:04.570Z,10.04
2023-03-28T12:08:57.324Z,10.03
2023-03-28T12:11:36.985Z,10.01
2023-03-28T12:14:28.483Z,10.05
2023-03-28T12:16:58.892Z,10.11
2023-03-28T12:19:33.150Z,10.11
2023-03-28T12:22:09.501Z,10.09
2023-03-28T12:24:54.917Z,10.08
2023-03-28T12:28:04.884Z,10.07
2023-03-28T12:30:36.428Z,10.14
2023-03-28T12:33:18.802Z,10.20
2023-03-28T12:35:59.016Z,10.27
2023-03-28T12:38:37.533Z,10.36
2023-03-28T12:41:31.844Z,10.40
2023-03-28T12:44:01.755Z,10.37
2023-03-28T12:46:51.625Z,10.28
2023-03-28T12:49:35.012Z,10.18
2023-03-28T12:52:07.930Z,10.14
2023-03-28T12:54:54.843Z,10.21
2023-03-28T12:57:41.582Z,10.25
2023-03-28T13:00:30.092Z,10.28
2023-03-28T13:03:28.201Z,10.35
2023-03-28T13:06:03.502Z,10.45
2023-03-28T13:08:46.683Z,10.51
2023-03-28T13:11:29.207Z,10.55
2023-03-28T13:14:32.892Z,10.57
2023-03-28T13:17:03.731Z,10.57
2023-03-28T13:19:42.104Z,10.49
2023-03-28T13:22:48.528Z,10.39
2023-03-28T13:25:23.112Z,10.46
2023-03-28T13:27:55.925Z,10.53
2023-03-28T13:30:26.709Z,10.59
2023-03-28T13:33:00.579Z,10.62
2023-03-28T13:35:45.992Z,10.63
2023-03-28T13:38:23.069Z,10.66
2023-03-28T13:40:56.649Z,10.70
2023-03-28T13:44:00.902Z,10.70
2023-03-28T13:46:33.491Z,10.53
2023-03-28T13:49:13.625Z,10.23
2023-03-28T13:51:53.477Z,9.88
2023-03-28T13:54:22.276Z,9.55
2023-03-28T13:56:51.328Z,9.20
2023-03-28T13:59:26.985Z,8.86
2023-03-28T14:02:00.180Z,8.57
2023-03-28T14:04:33.855Z,8.33
2023-03-28T14:07:02.601Z,8.07
2023-03-28T14:09:34.784Z,7.86
2023-03-28T14:12:12.206Z,7.70
2023-03-28T14:14:42.119Z,7.54
2023-03-28T14:17:31.702Z,7.40
2023-03-28T14:20:06.194Z,7.30
2023-03-28T14:23:00.553Z,7.26
2023-03-28T14:25:32.460Z,7.18
2023-03-28T14:28:08.087Z,7.01
2023-03-28T14:30:40.678Z,6.88
2023-03-28T14:33:14.687Z,6.76
2023-03-28T14:35:43.371Z,6.64
2023-03-28T14:38:17.638Z,6.54
2023-03-28T14:40:46.153Z,6.43
2023-03-28T14:43:17.192Z,6.33
2023-03-28T14:45:51.984Z,6.21
2023-03-28T14:48:26.783Z,6.10
2023-03-28T14:50:54.978Z,6.00
2023-03-28T14:53:25.207Z,5.90
2023-03-28T14:55:54.673Z,5.84
2023-03-28T14:58:23.030Z,5.78
2023-03-28T15:00:55.907Z,5.69
2023-03-28T15:03:28.234Z,5.61
2023-03-28T15:05:56.711Z,5.56
2023-03-28T15:08:37.898Z,5.50
2023-03-28T15:11:32.800Z,5.43
2023-03-28T15:14:12.342Z,5.37
2023-03-28T15:16:42.384Z,5.30
2023-03-28T15:19:17.489Z,5.25
2023-03-28T15:21:59.834Z,5.19
2023-03-28T15:24:31.314Z,5.12
2023-03-28T15:27:01.684Z,5.05
2023-03-28T15:29:34.927Z,4.96
2023-03-28T15:32:07.430Z,4.88
2023-03-28T15:34:44.235Z,4.78
2023-03-28T15:37:20.858Z,4.69
2023-03-28T15:39:51.034Z,4.61
2023-03-28T15:42:22.796Z,4.53
2023-03-28T15:44:57.036Z,4.45
2023-03-28T15:47:31.965Z,4.37
2023-03-28T15:50:05.536Z,4.31
2023-03-28T15:52:36.178Z,4.24
2023-03-28T15:55:04.765Z,4.17
2023-03-28T15:57:38.909Z,4.06
2023-03-28T16:00:18.122Z,3.95
2023-03-28T16:02:47.118Z,3.87
2023-03-28T16:05:15.313Z,3.83
2023-03-28T16:07:46.779Z,3.76
2023-03-28T16:10:21.843Z,3.70
2023-03-28T16:13:14.996Z,3.60
2023-03-28T16:16:06.985Z,3.51
2023-03-28T16:18:45.569Z,3.43
2023-03-28T16:21:15.091Z,3.39
2023-03-28T16:23:43.853Z,3.35
2023-03-28T16:26:12.094Z,3.24
2023-03-28T16:28:40.152Z,3.14
2023-03-28T16:31:13.770Z,3.10
2023-03-28T16:33:42.219Z,3.07
2023-03-28T16:36:12.064Z,3.02
2023-03-28T16:38:43.095Z,2.95
2023-03-28T16:41:11.227Z,2.94
2023-03-28T16:43:40.680Z,2.87
2023-03-28T16:46:11.102Z,2.79
2023-03-28T16:48:40.686Z,2.74
2023-03-28T16:51:08.997Z,2.66
2023-03-28T16:53:38.154Z,2.59
2023-03-28T16:56:08.522Z,2.53
2023-03-28T16:58:36.746Z,2.49
2023-03-28T17:01:08.591Z,2.49
2023-03-28T17:03:37.933Z,2.52
2023-03-28T17:06:08.324Z,2.51
2023-03-28T17:08:36.974Z,2.48
2023-03-28T17:11:07.425Z,2.46
2023-03-28T17:13:36.885Z,2.43
2023-03-28T17:16:06.198Z,2.35
2023-03-28T17:18:35.981Z,2.30
2023-03-28T17:21:06.431Z,2.28
2023-03-28T17:23:36.206Z,2.26
2023-03-28T17:26:05.355Z,2.21
2023-03-28T17:28:39.075Z,2.19
2023-03-28T17:31:08.996Z,2.17
2023-03-28T17:33:37.507Z,2.08
2023-03-28T17:36:21.040Z,1.98
2023-03-28T17:38:50.954Z,1.95
2023-03-28T17:41:19.362Z,1.94
2023-03-28T17:43:47.553Z,1.91
2023-03-28T17:46:16.431Z,1.83
2023-03-28T17:48:44.941Z,1.77
2023-03-28T17:51:15.423Z,1.72
2023-03-28T17:53:46.570Z,1.66
2023-03-28T17:56:21.313Z,1.56
2023-03-28T17:58:50.467Z,1.51
2023-03-28T18:01:19.738Z,1.49
2023-03-28T18:03:50.053Z,1.46
2023-03-28T18:06:42.057Z,1.43
2023-03-28T18:09:10.493Z,1.39
2023-03-28T18:11:41.661Z,1.37
2023-03-28T18:14:09.936Z,1.30
2023-03-28T18:16:41.403Z,1.29
2023-03-28T18:19:17.558Z,1.31
2023-03-28T18:21:45.973Z,1.30
2023-03-28T18:24:15.422Z,1.28
2023-03-28T18:26:43.654Z,1.26
2023-03-28T18:29:14.615Z,1.22
2023-03-28T18:31:43.763Z,1.19
2023-03-28T18:34:12.341Z,1.19
2023-03-28T18:36:42.113Z,1.19
2023-03-28T18:39:10.582Z,1.18
2023-03-28T18:41:38.647Z,1.16
2023-03-28T18:44:07.158Z,1.15
2023-03-28T18:46:35.354Z,1.13
2023-03-28T18:49:06.563Z,1.10
2023-03-28T18:51:35.660Z,1.06
2023-03-28T18:54:03.831Z,1.03
2023-03-28T18:56:33.315Z,1.03
2023-03-28T18:59:02.488Z,1.04
2023-03-28T19:01:30.838Z,1.04
2023-03-28T19:03:59.394Z,1.03
2023-03-28T19:06:27.684Z,1.02
2023-03-28T19:08:57.650Z,1.00
2023-03-28T19:11:25.818Z,0.98
2023-03-28T19:13:56.080Z,0.96
2023-03-28T19:16:24.177Z,0.94
2023-03-28T19:18:52.230Z,0.94
2023-03-28T19:21:20.244Z,0.92
2023-03-28T19:23:49.078Z,0.87
2023-03-28T19:26:18.397Z,0.82
2023-03-28T19:28:47.790Z,0.77
2023-03-28T19:31:16.106Z,0.73
2023-03-28T19:33:44.916Z,0.73
2023-03-28T19:36:13.349Z,0.73
2023-03-28T19:38:44.414Z,0.73
2023-03-28T19:41:18.073Z,0.74
2023-03-28T19:43:51.457Z,0.73
2023-03-28T19:46:26.112Z,0.67
2023-03-28T19:48:57.744Z,0.61
2023-03-28T19:51:26.025Z,0.58
2023-03-28T19:53:54.763Z,0.59
2023-03-28T19:56:23.708Z,0.60
2023-03-28T19:58:52.250Z,0.60
2023-03-28T20:01:23.791Z,0.62
2023-03-28T20:03:55.253Z,0.61
2023-03-28T20:06:23.453Z,0.60
2023-03-28T20:08:56.442Z,0.60
2023-03-28T20:11:24.973Z,0.61
2023-03-28T20:13:53.027Z,0.62
2023-03-28T20:16:23.383Z,0.62
2023-03-28T20:18:54.833Z,0.62
2023-03-28T20:21:22.925Z,0.62
2023-03-28T20:23:54.244Z,0.61
2023-03-28T20:26:25.986Z,0.62
2023-03-28T20:28:57.022Z,0.64
2023-03-28T20:31:26.662Z,0.67
2023-03-28T20:33:55.916Z,0.67
2023-03-28T20:36:27.539Z,0.69
2023-03-28T20:38:56.580Z,0.71
2023-03-28T20:41:25.978Z,0.71
2023-03-28T20:44:03.685Z,0.72
2023-03-28T20:46:34.597Z,0.74
2023-03-28T20:49:06.419Z,0.74
2023-03-28T20:51:39.340Z,0.76
2023-03-28T20:54:07.788Z,0.78
2023-03-28T20:56:55.936Z,0.79
2023-03-28T20:59:27.228Z,0.78
2023-03-28T21:01:55.821Z,0.78
2023-03-28T21:04:24.239Z,0.80
2023-03-28T21:06:52.573Z,0.81
2023-03-28T21:09:20.729Z,0.82
2023-03-28T21:11:49.725Z,0.83
2023-03-28T21:14:19.906Z,0.86
2023-03-28T21:16:50.010Z,0.89
2023-03-28T21:19:19.730Z,0.92
2023-03-28T21:21:48.771Z,0.93
2023-03-28T21:24:17.937Z,0.95
2023-03-28T21:26:46.053Z,0.98
2023-03-28T21:29:14.412Z,0.99
2023-03-28T21:31:42.784Z,1.01
2023-03-28T21:34:11.352Z,1.02
2023-03-28T21:36:39.381Z,1.04
2023-03-28T21:39:08.132Z,1.04
2023-03-28T21:41:43.812Z,1.04
2023-03-28T21:44:13.118Z,1.05
2023-03-28T21:46:41.673Z,1.06
2023-03-28T21:49:11.453Z,1.08
2023-03-28T21:51:39.816Z,1.10
2023-03-28T21:54:09.933Z,1.13
2023-03-28T21:56:38.693Z,1.14
2023-03-28T21:59:07.076Z,1.17
2023-03-28T22:01:39.512Z,1.19
2023-03-28T22:04:07.882Z,1.21
2023-03-28T22:06:36.359Z,1.24
2023-03-28T22:09:05.229Z,1.24
2023-03-28T22:11:35.233Z,1.24
2023-03-28T22:14:05.062Z,1.24
2023-03-28T22:16:39.040Z,1.24
2023-03-28T22:19:08.844Z,1.25
2023-03-28T22:21:37.239Z,1.26
2023-03-28T22:24:13.339Z,1.27
2023-03-28T22:26:45.247Z,1.27
2023-03-28T22:29:13.598Z,1.26
2023-03-28T22:31:42.178Z,1.24
2023-03-28T22:34:10.460Z,1.25
2023-03-28T22:36:38.986Z,1.28
2023-03-28T22:39:11.364Z,1.28
2023-03-28T22:41:44.994Z,1.29
2023-03-28T22:44:13.793Z,1.30
2023-03-28T22:46:42.905Z,1.32
2023-03-28T22:49:13.115Z,1.34
2023-03-28T22:51:46.273Z,1.36
2023-03-28T22:54:23.628Z,1.37
2023-03-28T22:56:52.135Z,1.38
2023-03-28T22:59:22.011Z,1.42
2023-03-28T23:01:50.486Z,1.44
2023-03-28T23:04:20.131Z,1.43
2023-03-28T23:06:50.529Z,1.41
2023-03-28T23:09:18.905Z,1.41
2023-03-28T23:11:55.124Z,1.43
2023-03-28T23:14:23.541Z,1.44
2023-03-28T23:16:52.576Z,1.43
2023-03-28T23:19:22.755Z,1.43
2023-03-28T23:21:51.106Z,1.43
2023-03-28T23:24:19.498Z,1.44
2023-03-28T23:26:48.001Z,1.45
2023-03-28T23:29:16.208Z,1.45
2023-03-28T23:31:49.413Z,1.43
2023-03-28T23:34:17.867Z,1.42
2023-03-28T23:36:47.186Z,1.42
2023-03-28T23:39:15.422Z,1.43
2023-03-28T23:41:43.599Z,1.44
2023-03-28T23:44:12.550Z,1.45
2023-03-28T23:46:41.049Z,1.48
2023-03-28T23:49:13.840Z,1.47
2023-03-28T23:51:42.261Z,1.45
2023-03-28T23:54:10.570Z,1.39
2023-03-28T23:56:40.008Z,1.35
2023-03-28T23:59:08.350Z,1.34
